createdAt,value
2018-01-28T00:00:09.562Z,15.30
2018-01-28T00:01:09.538Z,13.20
2018-01-28T00:02:09.539Z,15.00
2018-01-28T00:03:09.534Z,14.10
2018-01-28T00:04:09.564Z,14.60
2018-01-28T00:05:09.543Z,15.50
2018-01-28T00:06:09.603Z,16.20
2018-01-28T00:07:09.545Z,14.90
2018-01-28T00:08:09.550Z,13.80
2018-01-28T00:09:09.547Z,13.90
2018-01-28T00:10:09.552Z,13.30
2018-01-28T00:11:09.551Z,15.80
2018-01-28T00:12:09.557Z,15.50
2018-01-28T00:13:09.556Z,14.20
2018-01-28T00:14:09.562Z,15.90
2018-01-28T00:15:09.558Z,16.00
2018-01-28T00:16:09.565Z,16.10
2018-01-28T00:17:09.565Z,13.00
2018-01-28T00:18:09.572Z,18.80
2018-01-28T00:19:09.565Z,14.80
2018-01-28T00:20:09.567Z,15.10
2018-01-28T00:21:09.567Z,15.80
2018-01-28T00:22:09.577Z,17.20
2018-01-28T00:23:09.574Z,14.60
2018-01-28T00:24:09.580Z,15.60
2018-01-28T00:25:09.580Z,14.80
2018-01-28T00:26:09.582Z,15.40
2018-01-28T00:27:09.588Z,14.50
2018-01-28T00:28:09.585Z,15.20
2018-01-28T00:29:09.588Z,16.30
2018-01-28T00:30:09.587Z,14.40
2018-01-28T00:31:09.594Z,15.20
2018-01-28T00:32:09.586Z,15.50
2018-01-28T00:33:09.595Z,14.70
2018-01-28T00:34:09.598Z,16.20
2018-01-28T00:35:09.605Z,14.30
2018-01-28T00:36:09.598Z,15.80
2018-01-28T00:37:09.606Z,15.60
2018-01-28T00:38:09.599Z,16.80
2018-01-28T00:39:09.608Z,15.10
2018-01-28T00:40:09.604Z,15.30
2018-01-28T00:41:09.603Z,12.60
2018-01-28T00:42:09.615Z,12.80
2018-01-28T00:43:09.614Z,15.80
2018-01-28T00:44:09.612Z,13.80
2018-01-28T00:45:09.615Z,12.50
2018-01-28T00:46:09.618Z,12.80
2018-01-28T00:47:09.624Z,12.20
2018-01-28T00:48:09.619Z,13.80
2018-01-28T00:49:09.625Z,13.20
2018-01-28T00:50:09.630Z,11.80
2018-01-28T00:51:09.627Z,12.90
2018-01-28T00:52:10.151Z,13.90
2018-01-28T00:53:09.630Z,12.10
2018-01-28T00:54:09.635Z,12.60
2018-01-28T00:55:09.636Z,12.40
2018-01-28T00:56:09.634Z,13.00
2018-01-28T00:57:09.640Z,12.60
2018-01-28T00:58:09.646Z,12.50
2018-01-28T00:59:09.652Z,13.30
2018-01-28T01:00:09.646Z,12.90
2018-01-28T01:01:09.649Z,12.40
2018-01-28T01:02:09.646Z,11.80
2018-01-28T01:03:09.647Z,12.80
2018-01-28T01:04:09.654Z,14.10
2018-01-28T01:05:09.660Z,13.00
2018-01-28T01:06:09.655Z,12.10
2018-01-28T01:07:09.656Z,14.00
2018-01-28T01:08:09.663Z,13.50
2018-01-28T01:09:09.664Z,12.40
2018-01-28T01:10:09.660Z,13.60
2018-01-28T01:11:09.664Z,15.00
2018-01-28T01:12:10.660Z,14.20
2018-01-28T01:13:09.670Z,14.90
2018-01-28T01:14:09.674Z,13.70
2018-01-28T01:15:09.676Z,13.60
2018-01-28T01:16:09.674Z,14.50
2018-01-28T01:17:09.672Z,14.20
2018-01-28T01:18:09.680Z,14.60
2018-01-28T01:19:09.721Z,14.60
2018-01-28T01:20:09.688Z,12.60
2018-01-28T01:21:09.689Z,15.10
2018-01-28T01:22:09.695Z,13.80
2018-01-28T01:23:09.696Z,14.10
2018-01-28T01:24:09.692Z,14.10
2018-01-28T01:25:09.696Z,17.30
2018-01-28T01:26:09.697Z,16.30
2018-01-28T01:27:09.698Z,14.90
2018-01-28T01:28:09.722Z,14.70
2018-01-28T01:29:09.703Z,16.20
2018-01-28T01:30:09.703Z,16.00
2018-01-28T01:31:09.712Z,15.80
2018-01-28T01:32:09.709Z,14.40
2018-01-28T01:33:09.711Z,15.40
2018-01-28T01:34:09.714Z,14.80
2018-01-28T01:35:09.705Z,14.80
2018-01-28T01:36:09.715Z,16.20
2018-01-28T01:37:09.717Z,16.20
2018-01-28T01:38:09.718Z,17.30
2018-01-28T01:39:09.721Z,17.50
2018-01-28T01:40:09.720Z,16.60
2018-01-28T01:41:09.722Z,16.90
2018-01-28T01:42:09.726Z,17.90
2018-01-28T01:43:09.728Z,17.00
2018-01-28T01:44:09.733Z,15.90
2018-01-28T01:45:09.744Z,15.70
2018-01-28T01:46:09.741Z,16.00
2018-01-28T01:47:09.739Z,18.50
2018-01-28T01:48:09.737Z,18.20
2018-01-28T01:49:09.742Z,19.10
2018-01-28T01:50:10.661Z,16.80
2018-01-28T01:51:09.743Z,16.80
2018-01-28T01:52:09.747Z,15.80
2018-01-28T01:53:09.749Z,18.00
2018-01-28T01:54:09.772Z,16.90
2018-01-28T01:55:09.749Z,16.20
2018-01-28T01:56:09.748Z,18.40
2018-01-28T01:57:09.760Z,17.70
2018-01-28T01:58:09.759Z,17.00
2018-01-28T01:59:09.763Z,13.80
2018-01-28T02:00:09.762Z,15.80
2018-01-28T02:01:09.765Z,15.10
2018-01-28T02:02:09.774Z,16.30
2018-01-28T02:03:09.769Z,16.70
2018-01-28T02:04:09.772Z,16.10
2018-01-28T02:05:09.778Z,16.50
2018-01-28T02:06:09.776Z,15.10
2018-01-28T02:07:09.769Z,15.40
2018-01-28T02:08:09.782Z,15.50
2018-01-28T02:09:09.778Z,16.00
2018-01-28T02:10:09.784Z,16.20
2018-01-28T02:11:09.790Z,16.30
2018-01-28T02:12:09.788Z,17.90
2018-01-28T02:13:09.787Z,17.80
2018-01-28T02:14:09.789Z,18.00
2018-01-28T02:15:09.792Z,16.50
2018-01-28T02:16:09.796Z,16.00
2018-01-28T02:17:09.794Z,15.00
2018-01-28T02:18:09.834Z,16.50
2018-01-28T02:19:09.804Z,14.90
2018-01-28T02:20:09.799Z,15.60
2018-01-28T02:21:09.800Z,15.10
2018-01-28T02:22:09.809Z,15.60
2018-01-28T02:23:09.809Z,15.50
2018-01-28T02:24:09.805Z,14.90
2018-01-28T02:25:09.814Z,16.20
2018-01-28T02:26:09.808Z,15.40
2018-01-28T02:28:02.717Z,15.70
2018-01-28T02:29:02.688Z,15.10
2018-01-28T02:30:55.669Z,13.90
2018-01-28T02:31:55.701Z,15.30
2018-01-28T02:33:48.651Z,14.80
2018-01-28T02:34:48.606Z,14.60
2018-01-28T02:35:48.611Z,14.80
2018-01-28T02:36:48.606Z,16.70
2018-01-28T02:37:48.627Z,15.50
2018-01-28T02:38:48.623Z,16.80
2018-01-28T02:39:48.620Z,15.40
2018-01-28T02:40:48.625Z,13.60
2018-01-28T02:41:48.625Z,14.60
2018-01-28T02:42:48.622Z,13.50
2018-01-28T02:43:48.625Z,14.30
2018-01-28T02:44:48.627Z,16.70
2018-01-28T02:46:41.562Z,14.80
2018-01-28T02:47:41.541Z,14.60
2018-01-28T02:49:34.501Z,15.10
2018-01-28T02:50:34.499Z,14.20
2018-01-28T02:52:27.480Z,15.50
2018-01-28T02:53:27.450Z,15.70
2018-01-28T02:55:20.424Z,14.30
2018-01-28T02:56:20.406Z,14.80
2018-01-28T02:58:13.382Z,14.80
2018-01-28T02:59:13.365Z,14.10
2018-01-28T03:01:06.332Z,15.30
2018-01-28T03:02:06.323Z,17.80
2018-01-28T03:03:59.305Z,16.30
2018-01-28T03:04:59.280Z,15.90
2018-01-28T03:05:59.296Z,18.00
2018-01-28T03:06:59.287Z,18.00
2018-01-28T03:07:59.291Z,15.30
2018-01-28T03:08:59.289Z,16.70
2018-01-28T03:09:59.296Z,17.50
2018-01-28T03:10:59.294Z,17.10
2018-01-28T03:11:59.291Z,16.50
2018-01-28T03:12:59.302Z,14.50
2018-01-28T03:13:59.301Z,13.80
2018-01-28T03:14:59.300Z,14.80
2018-01-28T03:15:59.304Z,15.00
2018-01-28T03:16:59.307Z,14.00
2018-01-28T03:17:59.311Z,14.30
2018-01-28T03:18:59.305Z,15.40
2018-01-28T03:19:59.313Z,14.60
2018-01-28T03:20:59.315Z,13.30
2018-01-28T03:21:59.319Z,14.60
2018-01-28T03:22:59.320Z,14.90
2018-01-28T03:23:59.324Z,13.40
2018-01-28T03:24:59.329Z,13.40
2018-01-28T03:25:59.329Z,12.90
2018-01-28T03:26:59.329Z,12.60
2018-01-28T03:27:59.333Z,12.90
2018-01-28T03:28:59.336Z,12.00
2018-01-28T03:29:59.340Z,12.00
2018-01-28T03:30:59.338Z,11.10
2018-01-28T03:31:59.341Z,12.50
2018-01-28T03:32:59.340Z,13.10
2018-01-28T03:33:59.351Z,12.30
2018-01-28T03:34:59.348Z,13.00
2018-01-28T03:35:59.352Z,13.50
2018-01-28T03:36:59.353Z,13.20
2018-01-28T03:37:59.357Z,12.80
2018-01-28T03:38:59.356Z,12.10
2018-01-28T03:39:59.360Z,13.20
2018-01-28T03:40:59.362Z,13.20
2018-01-28T03:41:59.357Z,12.70
2018-01-28T03:42:59.367Z,12.60
2018-01-28T03:43:59.367Z,12.20
2018-01-28T03:44:59.371Z,12.10
2018-01-28T03:45:59.373Z,12.60
2018-01-28T03:46:59.379Z,12.10
2018-01-28T03:47:59.375Z,12.10
2018-01-28T03:48:59.385Z,11.50
2018-01-28T03:50:00.274Z,12.20
2018-01-28T03:50:59.384Z,11.80
2018-01-28T03:51:59.388Z,11.70
2018-01-28T03:52:59.392Z,11.60
2018-01-28T03:53:59.390Z,11.70
2018-01-28T03:54:59.398Z,11.50
2018-01-28T03:55:59.394Z,11.30
2018-01-28T03:56:59.394Z,12.20
2018-01-28T03:57:59.402Z,12.00
2018-01-28T03:58:59.405Z,12.00
2018-01-28T03:59:59.413Z,11.70
2018-01-28T04:00:59.416Z,11.20
2018-01-28T04:01:59.412Z,11.50
2018-01-28T04:02:59.417Z,10.90
2018-01-28T04:03:59.419Z,11.30
2018-01-28T04:04:59.425Z,11.90
2018-01-28T04:05:59.424Z,11.10
2018-01-28T04:06:59.423Z,11.00
2018-01-28T04:07:59.442Z,10.90
2018-01-28T04:08:59.432Z,11.20
2018-01-28T04:09:59.430Z,11.60
2018-01-28T04:10:59.440Z,11.20
2018-01-28T04:12:52.350Z,11.40
2018-01-28T04:13:52.337Z,11.60
2018-01-28T04:15:45.317Z,11.90
2018-01-28T04:16:45.287Z,13.10
2018-01-28T04:18:38.246Z,12.20
2018-01-28T04:19:38.246Z,12.40
2018-01-28T04:21:31.228Z,12.10
2018-01-28T04:22:31.201Z,12.40
2018-01-28T04:24:24.173Z,12.60
2018-01-28T04:25:24.162Z,12.80
2018-01-28T04:27:17.141Z,12.60
2018-01-28T04:28:17.119Z,12.40
2018-01-28T04:30:10.086Z,12.30
2018-01-28T04:31:10.076Z,13.30
2018-01-28T04:33:03.050Z,13.20
2018-01-28T04:34:03.030Z,14.00
2018-01-28T04:35:55.996Z,13.20
2018-01-28T04:36:55.987Z,13.30
2018-01-28T04:38:48.966Z,13.00
2018-01-28T04:39:48.949Z,12.60
2018-01-28T04:40:48.950Z,13.40
2018-01-28T04:41:48.953Z,12.70
2018-01-28T04:42:48.952Z,13.20
2018-01-28T04:43:48.961Z,13.90
2018-01-28T04:44:48.962Z,13.10
2018-01-28T04:45:48.975Z,13.20
2018-01-28T04:46:48.969Z,13.40
2018-01-28T04:47:48.976Z,13.00
2018-01-28T04:48:48.974Z,13.70
2018-01-28T04:49:48.974Z,14.20
2018-01-28T04:50:48.982Z,13.60
2018-01-28T04:51:48.981Z,13.30
2018-01-28T04:52:48.987Z,13.70
2018-01-28T04:53:48.988Z,13.60
2018-01-28T04:54:48.991Z,13.90
2018-01-28T04:55:48.991Z,13.30
2018-01-28T04:56:48.994Z,13.20
2018-01-28T04:57:48.999Z,13.40
2018-01-28T04:58:48.999Z,13.80
2018-01-28T04:59:49.003Z,13.30
2018-01-28T05:00:49.005Z,13.90
2018-01-28T05:01:49.014Z,13.30
2018-01-28T05:02:49.013Z,13.70
2018-01-28T05:03:49.013Z,13.90
2018-01-28T05:04:49.012Z,13.80
2018-01-28T05:05:49.019Z,14.40
2018-01-28T05:06:49.020Z,14.70
2018-01-28T05:07:49.027Z,13.70
2018-01-28T05:08:49.070Z,13.70
2018-01-28T05:09:49.035Z,13.70
2018-01-28T05:10:49.029Z,14.30
2018-01-28T05:11:49.037Z,14.30
2018-01-28T05:12:49.043Z,13.80
2018-01-28T05:13:49.040Z,13.10
2018-01-28T05:14:49.048Z,14.40
2018-01-28T05:15:49.046Z,13.70
2018-01-28T05:16:49.051Z,14.20
2018-01-28T05:17:49.054Z,15.10
2018-01-28T05:18:49.062Z,15.90
2018-01-28T05:19:49.056Z,15.80
2018-01-28T05:20:49.063Z,16.30
2018-01-28T05:21:49.065Z,15.50
2018-01-28T05:22:49.069Z,16.30
2018-01-28T05:23:49.068Z,16.30
2018-01-28T05:24:49.072Z,17.30
2018-01-28T05:25:49.077Z,17.50
2018-01-28T05:26:49.088Z,17.40
2018-01-28T05:27:49.078Z,18.10
2018-01-28T05:28:49.079Z,17.70
2018-01-28T05:29:49.096Z,17.70
2018-01-28T05:30:49.092Z,19.20
2018-01-28T05:31:49.093Z,18.20
2018-01-28T05:32:49.099Z,19.00
2018-01-28T05:33:49.104Z,18.20
2018-01-28T05:34:49.102Z,19.00
2018-01-28T05:35:49.111Z,18.50
2018-01-28T05:36:49.108Z,19.10
2018-01-28T05:37:49.109Z,18.80
2018-01-28T05:38:49.110Z,20.10
2018-01-28T05:39:49.118Z,19.10
2018-01-28T05:40:49.120Z,19.40
2018-01-28T05:41:49.121Z,18.90
2018-01-28T05:42:49.123Z,18.70
2018-01-28T05:43:49.130Z,18.40
2018-01-28T05:44:49.130Z,19.30
2018-01-28T05:45:49.131Z,19.20
2018-01-28T05:46:49.138Z,19.40
2018-01-28T05:47:49.139Z,19.10
2018-01-28T05:48:49.144Z,20.60
2018-01-28T05:49:49.146Z,19.20
2018-01-28T05:50:49.145Z,18.90
2018-01-28T05:51:49.152Z,20.10
2018-01-28T05:52:49.167Z,20.30
2018-01-28T05:53:49.155Z,21.10
2018-01-28T05:54:49.167Z,21.60
2018-01-28T05:55:49.163Z,21.60
2018-01-28T05:56:49.162Z,22.00
2018-01-28T05:57:49.170Z,21.10
2018-01-28T05:58:49.174Z,21.70
2018-01-28T05:59:49.172Z,21.20
2018-01-28T06:00:49.172Z,21.20
2018-01-28T06:01:49.178Z,23.20
2018-01-28T06:02:49.189Z,21.50
2018-01-28T06:03:49.187Z,21.50
2018-01-28T06:04:49.185Z,23.00
2018-01-28T06:05:49.193Z,22.80
2018-01-28T06:06:49.194Z,23.70
2018-01-28T06:07:49.232Z,23.00
2018-01-28T06:08:49.195Z,22.80
2018-01-28T06:09:49.206Z,23.70
2018-01-28T06:10:49.954Z,24.20
2018-01-28T06:11:49.212Z,23.80
2018-01-28T06:12:49.210Z,23.40
2018-01-28T06:13:49.210Z,24.70
2018-01-28T06:14:49.219Z,22.30
2018-01-28T06:15:49.221Z,24.20
2018-01-28T06:16:49.227Z,25.00
2018-01-28T06:17:49.223Z,25.50
2018-01-28T06:18:49.229Z,28.60
2018-01-28T06:19:49.232Z,24.90
2018-01-28T06:20:49.233Z,27.10
2018-01-28T06:21:49.241Z,26.10
2018-01-28T06:22:49.238Z,25.20
2018-01-28T06:23:49.244Z,26.00
2018-01-28T06:24:49.247Z,25.20
2018-01-28T06:25:49.246Z,24.50
2018-01-28T06:26:49.250Z,27.40
2018-01-28T06:27:49.253Z,26.30
2018-01-28T06:28:49.256Z,25.80
2018-01-28T06:29:49.264Z,24.50
2018-01-28T06:30:49.262Z,24.40
2018-01-28T06:31:49.272Z,25.10
2018-01-28T06:32:49.265Z,26.60
2018-01-28T06:33:49.276Z,25.90
2018-01-28T06:34:49.275Z,26.90
2018-01-28T06:35:49.276Z,27.70
2018-01-28T06:36:49.279Z,27.60
2018-01-28T06:37:49.281Z,30.40
2018-01-28T06:38:49.289Z,30.10
2018-01-28T06:39:49.287Z,30.40
2018-01-28T06:40:49.289Z,29.70
2018-01-28T06:41:49.292Z,31.80
2018-01-28T06:42:49.297Z,30.00
2018-01-28T06:43:49.349Z,30.40
2018-01-28T06:44:49.304Z,28.10
2018-01-28T06:45:49.301Z,32.30
2018-01-28T06:46:49.305Z,30.50
2018-01-28T06:47:49.314Z,33.80
2018-01-28T06:48:49.318Z,35.00
2018-01-28T06:49:49.312Z,34.10
2018-01-28T06:50:49.324Z,39.00
2018-01-28T06:51:49.324Z,36.70
2018-01-28T06:52:49.327Z,34.40
2018-01-28T06:53:49.332Z,36.50
2018-01-28T06:54:49.344Z,38.40
2018-01-28T06:55:49.337Z,37.90
2018-01-28T06:56:49.333Z,36.60
2018-01-28T06:57:49.338Z,38.00
2018-01-28T06:58:49.348Z,31.20
2018-01-28T06:59:49.348Z,35.50
2018-01-28T07:00:49.346Z,35.50
2018-01-28T07:01:49.358Z,35.70
2018-01-28T07:02:49.362Z,42.70
2018-01-28T07:03:49.354Z,39.70
2018-01-28T07:04:49.361Z,39.40
2018-01-28T07:05:49.369Z,40.00
2018-01-28T07:06:49.401Z,36.30
2018-01-28T07:07:49.367Z,42.70
2018-01-28T07:08:49.377Z,41.50
2018-01-28T07:09:49.383Z,39.70
2018-01-28T07:10:49.382Z,48.60
2018-01-28T07:11:49.379Z,46.60
2018-01-28T07:12:49.389Z,47.60
2018-01-28T07:13:49.390Z,51.50
2018-01-28T07:14:49.396Z,49.10
2018-01-28T07:15:49.397Z,48.30
2018-01-28T07:16:49.403Z,46.00
2018-01-28T07:17:49.398Z,46.80
2018-01-28T07:18:49.411Z,45.90
2018-01-28T07:19:49.408Z,47.60
2018-01-28T07:20:49.432Z,49.00
2018-01-28T07:21:49.408Z,45.10
2018-01-28T07:22:49.413Z,42.60
2018-01-28T07:23:49.422Z,43.10
2018-01-28T07:24:49.425Z,43.80
2018-01-28T07:25:49.424Z,39.40
2018-01-28T07:26:49.428Z,41.40
2018-01-28T07:27:49.428Z,40.90
2018-01-28T07:28:49.433Z,43.30
2018-01-28T07:29:49.436Z,39.80
2018-01-28T07:30:49.443Z,44.30
2018-01-28T07:31:49.444Z,48.00
2018-01-28T07:32:49.441Z,42.10
2018-01-28T07:33:49.456Z,41.10
2018-01-28T07:34:49.446Z,41.30
2018-01-28T07:35:49.975Z,38.60
2018-01-28T07:36:49.456Z,37.10
2018-01-28T07:37:49.463Z,37.80
2018-01-28T07:38:49.465Z,35.50
2018-01-28T07:39:49.472Z,33.60
2018-01-28T07:40:49.482Z,36.60
2018-01-28T07:41:49.473Z,35.40
2018-01-28T07:42:49.477Z,32.50
2018-01-28T07:43:49.487Z,35.70
2018-01-28T07:44:50.640Z,32.60
2018-01-28T07:45:49.489Z,33.90
2018-01-28T07:46:49.502Z,31.70
2018-01-28T07:47:49.494Z,33.00
2018-01-28T07:48:49.496Z,31.60
2018-01-28T07:49:49.498Z,31.50
2018-01-28T07:50:49.501Z,32.30
2018-01-28T07:51:49.511Z,29.80
2018-01-28T07:52:49.511Z,28.70
2018-01-28T07:53:49.509Z,29.60
2018-01-28T07:54:49.517Z,28.30
2018-01-28T07:55:49.513Z,28.20
2018-01-28T07:56:49.524Z,30.00
2018-01-28T07:57:49.522Z,27.80
2018-01-28T07:58:49.528Z,28.70
2018-01-28T07:59:49.528Z,33.50
2018-01-28T08:00:49.533Z,28.10
2018-01-28T08:02:42.441Z,29.70
2018-01-28T08:03:42.425Z,27.40
2018-01-28T08:05:35.379Z,27.40
2018-01-28T08:06:35.917Z,27.40
2018-01-28T08:08:28.365Z,22.80
2018-01-28T08:09:28.333Z,23.50
2018-01-28T08:11:21.292Z,23.60
2018-01-28T08:12:21.293Z,23.50
2018-01-28T08:14:14.280Z,23.00
2018-01-28T08:15:14.246Z,26.50
2018-01-28T08:17:07.213Z,23.90
2018-01-28T08:18:07.207Z,23.60
2018-01-28T08:20:00.191Z,22.70
2018-01-28T08:21:00.159Z,23.40
2018-01-28T08:22:53.126Z,22.90
2018-01-28T08:23:53.120Z,24.10
2018-01-28T08:25:46.101Z,23.10
2018-01-28T08:26:46.078Z,23.80
2018-01-28T08:28:39.042Z,22.40
2018-01-28T08:29:39.034Z,22.50
2018-01-28T08:31:32.019Z,22.60
2018-01-28T08:32:31.989Z,21.10
2018-01-28T08:34:24.953Z,21.80
2018-01-28T08:35:24.950Z,21.10
2018-01-28T08:37:17.924Z,23.00
2018-01-28T08:38:17.903Z,22.20
2018-01-28T08:40:10.865Z,22.50
2018-01-28T08:41:10.866Z,22.10
2018-01-28T08:43:03.839Z,23.90
2018-01-28T08:44:03.817Z,21.70
2018-01-28T08:45:56.780Z,22.10
2018-01-28T08:46:56.778Z,22.30
2018-01-28T08:48:49.756Z,24.00
2018-01-28T08:49:49.732Z,22.40
2018-01-28T08:51:42.722Z,24.90
2018-01-28T08:52:42.688Z,23.00
2018-01-28T08:54:35.646Z,24.30
2018-01-28T08:55:35.649Z,24.90
2018-01-28T08:57:28.631Z,26.20
2018-01-28T08:58:28.606Z,25.70
2018-01-28T09:00:21.561Z,25.40
2018-01-28T09:01:21.560Z,22.80
2018-01-28T09:03:14.537Z,26.20
2018-01-28T09:04:14.522Z,24.80
2018-01-28T09:06:07.484Z,25.60
2018-01-28T09:07:07.473Z,26.10
2018-01-28T09:09:00.455Z,25.20
2018-01-28T09:10:00.433Z,25.40
2018-01-28T09:11:53.390Z,25.40
2018-01-28T09:12:53.393Z,29.40
2018-01-28T09:14:46.371Z,27.10
2018-01-28T09:15:46.343Z,26.20
2018-01-28T09:17:39.310Z,29.00
2018-01-28T09:18:39.305Z,28.60
2018-01-28T09:20:32.285Z,27.90
2018-01-28T09:21:32.262Z,26.00
2018-01-28T09:23:25.249Z,27.70
2018-01-28T09:24:25.222Z,28.40
2018-01-28T09:26:18.184Z,31.10
2018-01-28T09:27:18.180Z,33.50
2018-01-28T09:29:11.163Z,36.70
2018-01-28T09:30:11.134Z,32.00
2018-01-28T09:31:11.140Z,29.80
2018-01-28T09:32:11.140Z,33.30
2018-01-28T09:33:11.148Z,35.20
2018-01-28T09:34:11.153Z,39.20
2018-01-28T09:35:11.156Z,36.80
2018-01-28T09:36:11.149Z,42.10
2018-01-28T09:37:11.160Z,40.20
2018-01-28T09:38:11.160Z,39.30
2018-01-28T09:39:11.172Z,39.90
2018-01-28T09:40:11.179Z,43.00
2018-01-28T09:41:11.173Z,40.70
2018-01-28T09:42:11.181Z,48.20
2018-01-28T09:43:11.185Z,48.80
2018-01-28T09:44:11.188Z,47.80
2018-01-28T09:45:11.190Z,42.90
2018-01-28T09:46:11.196Z,45.40
2018-01-28T09:47:11.197Z,46.90
2018-01-28T09:48:11.203Z,45.40
2018-01-28T09:49:11.203Z,47.50
2018-01-28T09:50:11.210Z,52.20
2018-01-28T09:51:11.210Z,53.90
2018-01-28T09:52:11.216Z,49.60
2018-01-28T09:53:11.218Z,48.40
2018-01-28T09:54:11.226Z,49.20
2018-01-28T09:55:11.224Z,55.20
2018-01-28T09:56:11.226Z,54.70
2018-01-28T09:57:11.235Z,61.00
2018-01-28T09:58:11.234Z,58.70
2018-01-28T09:59:11.239Z,53.50
2018-01-28T10:00:11.244Z,51.80
2018-01-28T10:01:11.247Z,60.20
2018-01-28T10:02:11.251Z,58.50
2018-01-28T10:03:11.260Z,49.30
2018-01-28T10:04:11.261Z,54.80
2018-01-28T10:05:11.267Z,55.10
2018-01-28T10:06:11.269Z,59.10
2018-01-28T10:07:11.271Z,60.50
2018-01-28T10:08:11.278Z,52.80
2018-01-28T10:09:11.276Z,51.50
2018-01-28T10:10:11.282Z,56.70
2018-01-28T10:11:11.285Z,54.30
2018-01-28T10:12:11.294Z,60.80
2018-01-28T10:13:11.295Z,56.40
2018-01-28T10:14:11.315Z,60.80
2018-01-28T10:15:11.304Z,58.10
2018-01-28T10:16:11.308Z,60.40
2018-01-28T10:17:11.310Z,59.30
2018-01-28T10:18:11.313Z,53.20
2018-01-28T10:19:11.318Z,50.30
2018-01-28T10:20:11.318Z,53.10
2018-01-28T10:21:11.325Z,62.30
2018-01-28T10:22:11.326Z,58.20
2018-01-28T10:23:11.332Z,53.60
2018-01-28T10:24:11.335Z,55.00
2018-01-28T10:25:12.140Z,50.10
2018-01-28T10:26:11.342Z,56.30
2018-01-28T10:27:11.353Z,52.80
2018-01-28T10:28:11.353Z,49.50
2018-01-28T10:29:11.358Z,53.70
2018-01-28T10:30:11.359Z,54.20
2018-01-28T10:31:11.363Z,53.50
2018-01-28T10:32:11.362Z,53.20
2018-01-28T10:33:11.372Z,54.60
2018-01-28T10:34:11.378Z,53.10
2018-01-28T10:35:11.376Z,48.70
2018-01-28T10:36:11.380Z,54.10
2018-01-28T10:37:11.387Z,48.90
2018-01-28T10:38:11.390Z,51.30
2018-01-28T10:39:11.391Z,56.50
2018-01-28T10:40:11.397Z,44.10
2018-01-28T10:41:11.404Z,50.60
2018-01-28T10:42:11.407Z,44.30
2018-01-28T10:43:11.408Z,45.70
2018-01-28T10:44:11.410Z,48.20
2018-01-28T10:45:11.419Z,45.90
2018-01-28T10:46:11.422Z,47.00
2018-01-28T10:47:11.440Z,47.40
2018-01-28T10:48:11.426Z,43.70
2018-01-28T10:49:11.432Z,45.20
2018-01-28T10:50:11.440Z,42.80
2018-01-28T10:51:11.442Z,45.10
2018-01-28T10:52:11.449Z,45.30
2018-01-28T10:53:11.447Z,40.70
2018-01-28T10:54:11.448Z,42.00
2018-01-28T10:55:11.459Z,44.90
2018-01-28T10:56:11.462Z,39.70
2018-01-28T10:57:11.465Z,47.00
2018-01-28T10:58:11.477Z,42.50
2018-01-28T10:59:11.473Z,42.70
2018-01-28T11:00:11.472Z,42.60
2018-01-28T11:01:11.479Z,40.60
2018-01-28T11:02:11.481Z,43.50
2018-01-28T11:03:11.488Z,45.20
2018-01-28T11:04:11.496Z,40.40
2018-01-28T11:05:11.499Z,40.30
2018-01-28T11:06:11.497Z,43.10
2018-01-28T11:07:11.506Z,42.50
2018-01-28T11:08:11.510Z,43.90
2018-01-28T11:09:11.508Z,44.50
2018-01-28T11:10:11.518Z,43.20
2018-01-28T11:11:11.521Z,41.40
2018-01-28T11:12:11.529Z,45.40
2018-01-28T11:13:11.527Z,41.60
2018-01-28T11:14:11.537Z,39.50
2018-01-28T11:15:11.536Z,38.90
2018-01-28T11:16:11.540Z,38.50
2018-01-28T11:17:11.579Z,40.00
2018-01-28T11:18:11.549Z,38.50
2018-01-28T11:19:11.550Z,37.00
2018-01-28T11:20:11.557Z,37.00
2018-01-28T11:21:11.560Z,38.40
2018-01-28T11:22:11.563Z,35.20
2018-01-28T11:23:11.573Z,38.10
2018-01-28T11:24:11.573Z,39.30
2018-01-28T11:25:11.581Z,40.20
2018-01-28T11:26:11.580Z,35.60
2018-01-28T11:27:11.601Z,34.90
2018-01-28T11:28:11.594Z,34.10
2018-01-28T11:29:11.596Z,34.50
2018-01-28T11:30:12.151Z,38.50
2018-01-28T11:31:11.608Z,39.00
2018-01-28T11:32:11.612Z,33.10
2018-01-28T11:33:11.611Z,34.70
2018-01-28T11:34:11.616Z,37.40
2018-01-28T11:35:11.630Z,32.80
2018-01-28T11:36:11.628Z,35.90
2018-01-28T11:37:11.632Z,34.10
2018-01-28T11:38:11.687Z,35.00
2018-01-28T11:39:11.640Z,35.00
2018-01-28T11:40:11.641Z,37.30
2018-01-28T11:41:11.649Z,31.00
2018-01-28T11:42:11.653Z,34.60
2018-01-28T11:43:11.653Z,31.30
2018-01-28T11:44:11.662Z,37.50
2018-01-28T11:45:11.666Z,32.50
2018-01-28T11:46:11.674Z,34.90
2018-01-28T11:47:11.673Z,33.60
2018-01-28T11:48:11.680Z,36.30
2018-01-28T11:49:11.679Z,35.60
2018-01-28T11:50:11.683Z,34.80
2018-01-28T11:51:11.689Z,34.50
2018-01-28T11:52:11.699Z,29.70
2018-01-28T11:53:11.707Z,35.70
2018-01-28T11:54:11.702Z,32.40
2018-01-28T11:55:11.713Z,37.50
2018-01-28T11:56:11.714Z,34.40
2018-01-28T11:57:11.714Z,39.40
2018-01-28T11:58:11.742Z,33.10
2018-01-28T11:59:11.729Z,35.20
2018-01-28T12:00:11.736Z,36.80
2018-01-28T12:01:11.735Z,32.10
2018-01-28T12:02:11.740Z,35.90
2018-01-28T12:03:11.747Z,35.50
2018-01-28T12:04:11.747Z,32.30
2018-01-28T12:05:11.797Z,34.60
2018-01-28T12:06:11.758Z,31.20
2018-01-28T12:07:11.764Z,33.50
2018-01-28T12:08:11.765Z,36.60
2018-01-28T12:09:11.773Z,32.90
2018-01-28T12:10:11.775Z,34.60
2018-01-28T12:11:11.783Z,32.20
2018-01-28T12:12:11.784Z,34.50
2018-01-28T12:13:11.792Z,33.60
2018-01-28T12:14:11.792Z,32.80
2018-01-28T12:15:11.802Z,36.60
2018-01-28T12:16:11.802Z,30.60
2018-01-28T12:17:11.811Z,32.30
2018-01-28T12:18:11.810Z,32.40
2018-01-28T12:19:11.820Z,31.80
2018-01-28T12:20:11.823Z,31.10
2018-01-28T12:21:11.825Z,34.80
2018-01-28T12:22:11.832Z,32.50
2018-01-28T12:23:11.833Z,31.00
2018-01-28T12:24:11.843Z,33.60
2018-01-28T12:25:11.845Z,32.00
2018-01-28T12:26:11.847Z,31.30
2018-01-28T12:27:11.854Z,34.40
2018-01-28T12:28:11.862Z,32.00
2018-01-28T12:29:11.863Z,32.20
2018-01-28T12:30:11.870Z,30.50
2018-01-28T12:31:11.870Z,31.60
2018-01-28T12:32:11.878Z,30.70
2018-01-28T12:33:11.883Z,30.40
2018-01-28T12:34:11.889Z,30.30
2018-01-28T12:35:11.894Z,30.40
2018-01-28T12:36:11.893Z,29.70
2018-01-28T12:37:11.905Z,28.70
2018-01-28T12:38:11.907Z,30.50
2018-01-28T12:39:11.909Z,31.40
2018-01-28T12:40:11.914Z,31.60
2018-01-28T12:41:11.959Z,31.20
2018-01-28T12:42:11.924Z,31.10
2018-01-28T12:43:11.926Z,30.00
2018-01-28T12:44:11.933Z,30.10
2018-01-28T12:45:11.942Z,31.10
2018-01-28T12:46:11.945Z,30.30
2018-01-28T12:47:11.948Z,33.90
2018-01-28T12:48:11.951Z,32.20
2018-01-28T12:49:11.966Z,31.60
2018-01-28T12:50:11.967Z,29.90
2018-01-28T12:51:11.966Z,31.10
2018-01-28T12:52:11.977Z,30.70
2018-01-28T12:53:11.975Z,29.10
2018-01-28T12:54:11.980Z,32.00
2018-01-28T12:55:11.988Z,28.70
2018-01-28T12:56:11.993Z,31.00
2018-01-28T12:57:11.993Z,30.90
2018-01-28T12:58:11.999Z,31.50
2018-01-28T12:59:12.010Z,32.90
2018-01-28T13:00:12.012Z,31.40
2018-01-28T13:01:12.017Z,29.40
2018-01-28T13:02:12.017Z,34.00
2018-01-28T13:03:12.680Z,28.50
2018-01-28T13:04:12.032Z,32.60
2018-01-28T13:05:12.035Z,30.50
2018-01-28T13:06:12.034Z,31.90
2018-01-28T13:07:12.044Z,30.60
2018-01-28T13:08:12.055Z,30.10
2018-01-28T13:09:12.054Z,32.80
2018-01-28T13:10:12.059Z,26.40
2018-01-28T13:11:12.062Z,32.20
2018-01-28T13:12:12.066Z,30.40
2018-01-28T13:13:12.076Z,27.40
2018-01-28T13:14:12.081Z,31.70
2018-01-28T13:15:12.076Z,29.40
2018-01-28T13:16:12.087Z,29.40
2018-01-28T13:17:12.099Z,29.40
2018-01-28T13:18:12.095Z,29.20
2018-01-28T13:19:12.100Z,29.30
2018-01-28T13:20:12.106Z,31.60
2018-01-28T13:21:12.115Z,27.60
2018-01-28T13:22:12.116Z,27.10
2018-01-28T13:23:12.126Z,27.00
2018-01-28T13:24:12.125Z,29.10
2018-01-28T13:25:12.133Z,30.90
2018-01-28T13:26:12.136Z,30.40
2018-01-28T13:27:12.143Z,28.20
2018-01-28T13:28:12.145Z,27.00
2018-01-28T13:29:12.189Z,28.70
2018-01-28T13:30:12.153Z,29.80
2018-01-28T13:31:12.160Z,29.10
2018-01-28T13:32:12.165Z,27.70
2018-01-28T13:33:12.167Z,27.30
2018-01-28T13:34:12.175Z,27.40
2018-01-28T13:35:12.178Z,29.60
2018-01-28T13:36:12.186Z,25.30
2018-01-28T13:37:12.188Z,31.30